Data for 10/24/2007

Time Sea-Level Adjusted Pressure Absolute Pressure Temperature Relative Humidity Dew Point   
(mb) (inHg) (mb) (inHg) (C) (F) (%) (C) (F)
00:05 1029 30.39 858 25.34 9.3 48.8 50 -0.6 31
00:10 1029 30.39 858 25.34 9.3 48.7 50 -0.6 30.9
00:15 1029 30.39 858 25.34 9.3 48.7 50 -0.6 30.9
00:20 1029 30.39 858 25.34 9.3 48.7 50 -0.7 30.8
00:25 1029 30.39 858 25.34 8.9 48.1 51 -0.5 31
00:30 1029 30.39 858 25.34 8.5 47.2 52 -0.8 30.6
00:35 1029 30.39 858 25.34 8.1 46.6 53 -0.9 30.3
00:40 1029 30.39 858 25.34 8 46.4 52 -1.2 29.8
00:45 1029 30.39 858 25.34 8.2 46.7 51 -1.2 29.8
00:50 1029 30.39 858 25.34 8.5 47.3 47 -2 28.4
00:55 1029 30.39 858 25.34 8.4 47.1 48 -2.1 28.2
01:00 1029 30.39 858 25.34 7.8 46.1 47 -2.7 27.1
01:05 1029 30.39 858 25.34 7.7 45.9 46 -3.2 26.2
01:10 1029 30.39 858 25.34 7.8 46.1 50 -2 28.4
01:15 1029 30.39 858 25.34 8.1 46.6 50 -1.6 29.2
01:20 1029 30.39 858 25.34 8.1 46.5 53 -1 30.3
01:25 1029 30.39 858 25.34 7.8 46 48 -2.6 27.2
01:30 1029 30.39 858 25.34 7.4 45.4 48 -2.7 27.1
01:35 1029 30.39 858 25.34 7.1 44.8 47 -3.6 25.6
01:40 1029 30.39 858 25.34 7.5 45.4 50 -2.4 27.7
01:45 1028 30.36 858 25.34 7.8 46 49 -2.2 28.1
01:50 1028 30.36 858 25.34 7.9 46.1 51 -1.7 29
01:55 1028 30.36 858 25.34 7.9 46.2 51 -1.5 29.4
02:00 1028 30.36 858 25.34 7.6 45.7 52 -1.5 29.3
02:05 1028 30.36 858 25.34 7.2 45 53 -1.6 29.1
02:10 1028 30.36 857 25.31 6.9 44.4 53 -1.9 28.6
02:15 1028 30.36 857 25.31 7 44.7 53 -2 28.4
02:20 1028 30.36 857 25.31 7.4 45.3 52 -1.7 29
02:25 1028 30.36 857 25.31 7.4 45.2 52 -1.7 28.9
02:30 1028 30.36 857 25.31 7.4 45.3 52 -1.7 28.9
02:35 1028 30.36 857 25.31 7.5 45.5 52 -1.7 28.9
02:40 1028 30.36 857 25.31 7.8 46 51 -1.6 29.1
02:45 1028 30.36 857 25.31 7.8 46.1 51 -1.6 29.2
02:50 1028 30.36 857 25.31 7.6 45.8 53 -1.3 29.7
02:55 1028 30.36 857 25.31 7.3 45.2 54 -1.4 29.4
03:00 1028 30.36 857 25.31 7.4 45.4 51 -2.2 28.1
03:05 1028 30.36 857 25.31 7.5 45.5 48 -2.7 27.2
03:10 1028 30.36 857 25.31 7.5 45.6 46 -3.4 26
03:15 1028 30.36 857 25.31 7.5 45.6 47 -3 26.6
03:20 1028 30.36 857 25.31 7.7 45.9 48 -2.6 27.2
03:25 1028 30.36 857 25.31 8.2 46.7 46 -2.7 27.1
03:30 1028 30.36 857 25.31 8.2 46.8 47 -2.3 27.8
03:35 1028 30.36 857 25.31 8 46.4 43 -3.7 25.4
03:40 1028 30.36 857 25.31 7.9 46.3 44 -3.7 25.3
03:45 1028 30.36 857 25.31 7.1 44.7 45 -4 24.7
03:50 1028 30.36 857 25.31 6.9 44.5 43 -4.7 23.6
03:55 1028 30.36 857 25.31 7.3 45.2 46 -3.6 25.5
04:00 1028 30.36 857 25.31 7.8 46.1 46 -3.2 26.3
04:05 1028 30.36 857 25.31 7.8 46 48 -2.6 27.3
04:10 1028 30.36 857 25.31 7.6 45.7 48 -2.6 27.4
04:15 1028 30.36 857 25.31 7.7 45.8 48 -2.6 27.4
04:20 1028 30.36 857 25.31 7.9 46.1 46 -2.9 26.7
04:25 1028 30.36 857 25.31 8.2 46.8 46 -2.6 27.3
04:30 1028 30.36 857 25.31 8.4 47.2 47 -2.3 27.9
04:35 1028 30.36 857 25.31 8.1 46.7 48 -2.2 28
04:40 1028 30.36 857 25.31 7.9 46.2 49 -2.2 28
04:45 1027 30.33 857 25.31 7 44.5 52 -2.2 28.1
04:50 1027 30.33 857 25.31 6.2 43.2 51 -3.1 26.4
04:55 1027 30.33 857 25.31 6.2 43.1 51 -3.1 26.3
05:00 1027 30.33 857 25.31 5.2 41.3 52 -3.8 25.2
05:05 1027 30.33 856 25.28 5.4 41.7 51 -4 24.7
05:10 1027 30.33 856 25.28 5.8 42.5 43 -5.7 21.8
05:15 1027 30.33 856 25.28 7.3 45.1 41 -5.2 22.6
05:20 1027 30.33 856 25.28 7.5 45.6 42 -4.6 23.6
05:25 1027 30.33 856 25.28 7.5 45.5 41 -4.8 23.4
05:30 1027 30.33 856 25.28 7.3 45.1 43 -4.5 24
05:35 1027 30.33 856 25.28 7.5 45.5 43 -4.4 24
05:40 1027 30.33 856 25.28 7.4 45.3 44 -4.2 24.5
05:45 1027 30.33 856 25.28 7.2 44.9 47 -3.4 25.8
05:50 1027 30.33 856 25.28 7 44.6 43 -4.7 23.6
05:55 1027 30.33 856 25.28 7.1 44.8 44 -4.3 24.3
06:00 1027 30.33 856 25.28 6.6 43.8 47 -3.9 25
06:05 1027 30.33 856 25.28 5.9 42.6 50 -3.6 25.6
06:10 1027 30.33 856 25.28 5.5 41.8 53 -3.4 25.8
06:15 1027 30.33 856 25.28 5.1 41.3 54 -3.3 26
06:20 1027 30.33 856 25.28 4.6 40.3 56 -3.3 26
06:25 1027 30.33 856 25.28 4.1 39.4 59 -3.1 26.3
06:30 1027 30.33 856 25.28 3.6 38.5 59 -3.6 25.5
06:35 1027 30.33 856 25.28 4 39.2 57 -3.7 25.3
06:40 1027 30.33 856 25.28 4.1 39.5 57 -3.7 25.4
06:45 1027 30.33 856 25.28 4.2 39.6 55 -4 24.9
06:50 1026 30.3 856 25.28 4.6 40.2 52 -4.4 24.1
06:55 1026 30.3 856 25.28 5.6 42 47 -4.8 23.3
07:00 1026 30.3 855 25.25 6.4 43.6 46 -4.2 24.4
07:05 1026 30.3 855 25.25 6.6 43.9 45 -4.4 24.1
07:10 1026 30.3 855 25.25 6.6 43.9 46 -4 24.7
07:15 1026 30.3 855 25.25 6.5 43.7 47 -4 24.8
07:20 1026 30.3 855 25.25 6.6 43.9 48 -3.7 25.3
07:25 1026 30.3 855 25.25 7.1 44.8 45 -4 24.9
07:30 1026 30.3 855 25.25 7.4 45.4 44 -4.1 24.6
07:35 1026 30.3 855 25.25 8.2 46.7 42 -4.1 24.6
07:40 1026 30.3 855 25.25 8.3 46.9 42 -3.9 25
07:45 1026 30.3 855 25.25 8.2 46.8 43 -3.6 25.4
07:50 1026 30.3 855 25.25 8.1 46.6 44 -3.4 25.8
07:55 1026 30.3 855 25.25 8.2 46.7 43 -3.5 25.7
08:00 1026 30.3 855 25.25 8.6 47.6 43 -3.3 26.1
08:05 1026 30.3 855 25.25 8.6 47.4 43 -3.3 26
08:10 1026 30.3 855 25.25 8.2 46.8 44 -3.3 26
08:15 1026 30.3 855 25.25 6.9 44.4 50 -2.7 27.2
08:20 1026 30.3 855 25.25 5.8 42.5 52 -3.2 26.2
08:25 1026 30.3 855 25.25 5.5 41.8 54 -3.2 26.3
08:30 1026 30.3 855 25.25 4.8 40.7 55 -3.5 25.7
08:35 1026 30.3 855 25.25 4.6 40.3 53 -4.2 24.5
08:40 1026 30.3 855 25.25 5.1 41.3 51 -4.3 24.3
08:45 1025 30.27 855 25.25 5.8 42.5 48 -4.3 24.3
08:50 1025 30.27 855 25.25 6.1 42.9 46 -4.7 23.5
08:55 1025 30.27 855 25.25 6.9 44.4 47 -3.7 25.3
09:00 1025 30.27 855 25.25 6.9 44.5 46 -3.8 25.1
09:05 1025 30.27 855 25.25 7.5 45.4 45 -3.7 25.4
09:10 1025 30.27 855 25.25 7.9 46.1 44 -3.7 25.3
09:15 1025 30.27 855 25.25 8.3 46.9 43 -3.5 25.6
09:20 1025 30.27 855 25.25 8.9 47.9 42 -3.4 26
09:25 1025 30.27 855 25.25 8.9 48 43 -2.9 26.8
09:30 1025 30.27 855 25.25 9.1 48.3 43 -2.8 26.9
09:35 1025 30.27 855 25.25 8.9 47.9 42 -3.4 25.9
09:40 1025 30.27 855 25.25 8.9 48.1 41 -3.7 25.4
09:45 1025 30.27 855 25.25 9.7 49.5 38 -4 24.8
09:50 1025 30.27 855 25.25 10.4 50.8 36 -3.8 25.1
09:55 1025 30.27 854 25.22 11.1 51.9 36 -3.6 25.6
10:00 1025 30.27 854 25.22 11.2 52.2 37 -2.7 27.1
10:05 1025 30.27 854 25.22 10.9 51.5 39 -2.5 27.5
10:10 1025 30.27 854 25.22 11.1 51.9 38 -2.8 26.9
10:15 1025 30.27 854 25.22 11.1 51.9 38 -2.6 27.4
10:20 1025 30.27 854 25.22 11.5 52.6 37 -2.8 26.9
10:25 1025 30.27 854 25.22 12 53.6 36 -2.5 27.5
10:30 1025 30.27 854 25.22 11.9 53.4 37 -2.2 28
10:35 1025 30.27 854 25.22 12.2 53.9 37 -2.2 28.1
10:40 1025 30.27 854 25.22 11.9 53.4 37 -2.2 28
10:45 1025 30.27 854 25.22 12.4 54.4 36 -2.2 28
10:50 1025 30.27 854 25.22 11.7 53.1 38 -1.9 28.5
10:55 1025 30.27 854 25.22 11.9 53.4 37 -2.1 28.2
11:00 1024 30.24 854 25.22 12.1 53.8 36 -2.6 27.3
11:05 1024 30.24 854 25.22 12.8 55.1 35 -2.4 27.7
11:10 1024 30.24 854 25.22 12.8 55 36 -2 28.4
11:15 1024 30.24 853 25.19 13.4 56.2 35 -1.5 29.3
11:20 1024 30.24 853 25.19 13.9 57.1 34 -1.6 29.1
11:25 1024 30.24 853 25.19 14.1 57.4 35 -1 30.3
11:30 1024 30.24 853 25.19 14 57.1 34 -1.5 29.3
11:35 1024 30.24 853 25.19 14.3 57.7 33 -1.5 29.3
11:40 1024 30.24 853 25.19 14.6 58.3 33 -1.3 29.7
11:45 1024 30.24 853 25.19 15.3 59.5 31 -1.6 29.2
11:50 1024 30.24 853 25.19 16 60.8 30 -1.4 29.5
11:55 1024 30.24 853 25.19 16.6 61.8 29 -1.4 29.5
12:00 1024 30.24 853 25.19 17 62.6 28 -1.7 29
12:05 1023 30.21 853 25.19 17.4 63.4 27 -1.6 29.1
12:10 1023 30.21 853 25.19 16.7 62 29 -1.1 30
12:15 1023 30.21 852 25.16 16.3 61.4 29 -1.8 28.8
12:20 1023 30.21 852 25.16 17 62.5 29 -1.3 29.7
12:25 1023 30.21 852 25.16 17.2 62.9 28 -1.6 29.1
12:30 1023 30.21 852 25.16 17.4 63.3 28 -1.3 29.7
12:35 1023 30.21 852 25.16 17.4 63.4 29 -0.5 31
12:40 1023 30.21 852 25.16 17.3 63.1 31 -0 31.9
12:45 1023 30.21 852 25.16 16.3 61.3 31 -0.9 30.3
12:50 1023 30.21 852 25.16 16.3 61.4 31 -0.9 30.3
12:55 1023 30.21 852 25.16 17 62.6 30 -0.8 30.6
13:00 1023 30.21 852 25.16 16.4 61.5 31 -0.7 30.8
13:05 1022 30.18 852 25.16 17.3 63.2 30 -0.5 31.2
13:10 1022 30.18 852 25.16 17.8 64 28 -0.9 30.4
13:15 1022 30.18 851 25.13 17.9 64.3 28 -0.8 30.6
13:20 1022 30.18 851 25.13 18.7 65.6 27 -0.4 31.3
13:25 1022 30.18 851 25.13 18.4 65.1 28 -0.5 31.1
13:30 1022 30.18 851 25.13 18.1 64.6 28 -0.4 31.3
13:35 1022 30.18 851 25.13 18.7 65.7 26 -0.9 30.3
13:40 1022 30.18 851 25.13 18.9 66 28 0.3 32.5
13:45 1022 30.18 851 25.13 19.2 66.5 27 -0.2 31.6
13:50 1021 30.15 851 25.13 18.8 65.8 28 -0.2 31.7
13:55 1021 30.15 851 25.13 19.4 66.9 27 -0.1 31.9
14:00 1021 30.15 851 25.13 19.6 67.2 26 -0.3 31.4
14:05 1021 30.15 850 25.1 20.5 68.9 25 -0.2 31.7
14:10 1021 30.15 850 25.1 21 69.8 24 -0.2 31.6
14:15 1021 30.15 850 25.1 20.6 69.1 25 -0.2 31.7
14:20 1021 30.15 850 25.1 20.7 69.2 23 -0.8 30.6
14:25 1021 30.15 850 25.1 20.5 68.9 24 -0.7 30.7
14:30 1021 30.15 850 25.1 21 69.8 24 -0.2 31.7
14:35 1021 30.15 850 25.1 21 69.7 23 -0.8 30.5
14:40 1021 30.15 850 25.1 21.5 70.8 21 -1.6 29.2
14:45 1021 30.15 850 25.1 21.8 71.2 21 -1.4 29.5
14:50 1021 30.15 850 25.1 22.4 72.4 20 -1.2 29.8
14:55 1020 30.12 850 25.1 21.9 71.4 22 -0.4 31.2
15:00 1020 30.12 849 25.07 21.1 69.9 21 -1.9 28.6
15:05 1020 30.12 849 25.07 21.3 70.4 21 -1.8 28.8
15:10 1020 30.12 849 25.07 22.1 71.7 20 -1.6 29.1
15:15 1020 30.12 849 25.07 22.8 73 19 -1.9 28.5
15:20 1020 30.12 849 25.07 23.5 74.3 18 -2 28.3
15:25 1020 30.12 849 25.07 24 75.2 18 -1.7 28.9
15:30 1020 30.12 849 25.07 24.7 76.5 18 -0.7 30.7
15:35 1020 30.12 849 25.07 24.7 76.5 18 -0.9 30.3
15:40 1020 30.12 849 25.07 24.1 75.4 18 -1.5 29.2
15:45 1020 30.12 849 25.07 23.6 74.4 18 -1.7 29
15:50 1020 30.12 849 25.07 23.3 74 18 -2 28.5
15:55 1020 30.12 849 25.07 23.6 74.5 18 -1.8 28.8
16:00 1020 30.12 849 25.07 24.5 76.1 17 -1.8 28.8
16:05 1020 30.12 849 25.07 24.5 76.1 17 -1.6 29
16:10 1019 30.09 849 25.07 24.8 76.6 18 -1.2 29.9
16:15 1019 30.09 849 25.07 24.6 76.3 19 -0.3 31.5
16:20 1019 30.09 849 25.07 24.8 76.6 18 -0.7 30.8
16:25 1019 30.09 849 25.07 25.2 77.4 17 -1.3 29.7
16:30 1019 30.09 848 25.04 25.4 77.7 17 -1.4 29.5
16:35 1019 30.09 848 25.04 25.6 78.1 17 -1.3 29.7
16:40 1019 30.09 848 25.04 25.1 77.1 17 -1.7 29
16:45 1019 30.09 848 25.04 24.5 76.1 17 -1.6 29
16:50 1019 30.09 848 25.04 24.3 75.7 18 -1.1 29.9
16:55 1019 30.09 848 25.04 24.3 75.7 18 -1.6 29.1
17:00 1019 30.09 848 25.04 24.2 75.6 18 -1.5 29.3
17:05 1019 30.09 848 25.04 24.2 75.6 18 -1.1 30
17:10 1019 30.09 848 25.04 24.5 76.2 18 -1.2 29.8
17:15 1019 30.09 848 25.04 24.3 75.8 18 -1.3 29.7
17:20 1019 30.09 848 25.04 24.2 75.6 18 -1.4 29.5
17:25 1019 30.09 848 25.04 23.8 74.9 23 1.9 35.5
17:30 1019 30.09 848 25.04 23.7 74.6 20 -0.6 30.9
17:35 1019 30.09 848 25.04 23.6 74.5 21 -0 32
17:40 1019 30.09 848 25.04 23.1 73.7 21 -0.3 31.5
17:45 1019 30.09 848 25.04 23.3 74 20 -0.5 31.2
17:50 1019 30.09 848 25.04 23.3 74 21 -0.2 31.7
17:55 1019 30.09 848 25.04 23 73.5 22 0.3 32.5
18:00 1019 30.09 848 25.04 22.7 72.9 21 -0.7 30.7
18:05 1018 30.06 848 25.04 21.8 71.2 25 0.9 33.7
18:10 1018 30.06 848 25.04 21.2 70.1 28 2 35.6
18:15 1018 30.06 848 25.04 20.3 68.6 27 1.1 33.9
18:20 1018 30.06 848 25.04 19.7 67.4 26 -0.1 31.8
18:25 1018 30.06 848 25.04 19.8 67.6 29 1.4 34.4
18:30 1018 30.06 848 25.04 18.9 66 32 1.9 35.4
18:35 1018 30.06 848 25.04 18.2 64.8 32 1.3 34.3
18:40 1018 30.06 848 25.04 17.9 64.3 30 0.1 32.2
18:45 1018 30.06 848 25.04 18.1 64.5 27 -0.8 30.5
18:50 1018 30.06 848 25.04 18.2 64.7 30 0.2 32.4
18:55 1018 30.06 848 25.04 18.3 64.9 29 -0.2 31.7
19:00 1018 30.06 848 25.04 18.2 64.8 30 0.7 33.2
19:05 1018 30.06 848 25.04 17.7 63.8 33 1.3 34.3
19:10 1018 30.06 848 25.04 17.1 62.8 32 0.5 32.8
19:15 1018 30.06 848 25.04 16.9 62.3 37 2.3 36.1
19:20 1019 30.09 848 25.04 16.4 61.6 32 -0.1 31.8
19:25 1019 30.09 848 25.04 16.2 61.1 32 -0.2 31.6
19:30 1019 30.09 848 25.04 15.9 60.6 32 -0.8 30.5
19:35 1019 30.09 848 25.04 16.1 61 30 -1.5 29.3
19:40 1019 30.09 848 25.04 16.5 61.7 29 -1.4 29.6
19:45 1019 30.09 848 25.04 16.7 62.1 32 0.2 32.3
19:50 1019 30.09 848 25.04 16.8 62.2 28 -1.5 29.3
19:55 1019 30.09 848 25.04 16.9 62.4 28 -1.8 28.7
20:00 1018 30.06 848 25.04 16.6 61.9 28 -1.8 28.8
20:05 1018 30.06 848 25.04 16.2 61.1 26 -3.2 26.2
20:10 1018 30.06 848 25.04 16.2 61.2 28 -2 28.4
20:15 1018 30.06 848 25.04 15.7 60.2 28 -2.6 27.4
20:20 1018 30.06 848 25.04 15.1 59.1 30 -2.5 27.6
20:25 1018 30.06 848 25.04 14.4 57.9 28 -4 24.8
20:30 1018 30.06 848 25.04 14.7 58.5 27 -4.1 24.6
20:35 1018 30.06 848 25.04 14.8 58.6 28 -3.4 25.9
20:40 1018 30.06 848 25.04 14.7 58.4 28 -3.4 25.8
20:45 1018 30.06 848 25.04 14.6 58.3 27 -4.2 24.5
20:50 1018 30.06 848 25.04 14.6 58.3 26 -4.8 23.4
20:55 1018 30.06 848 25.04 15 59.1 25 -4.5 23.8
21:00 1019 30.09 848 25.04 15.1 59.2 28 -3.4 25.8
21:05 1018 30.06 848 25.04 14.6 58.2 26 -4.5 23.9
21:10 1018 30.06 848 25.04 14.8 58.6 25 -5.2 22.6
21:15 1018 30.06 848 25.04 15.2 59.3 26 -4.1 24.6
21:20 1018 30.06 848 25.04 14.8 58.6 27 -3.9 24.9
21:25 1018 30.06 848 25.04 14.2 57.5 27 -4.5 24
21:30 1018 30.06 848 25.04 13.8 56.9 27 -5 23
21:35 1018 30.06 848 25.04 13.9 57.1 24 -6.3 20.7
21:40 1018 30.06 848 25.04 14.7 58.4 24 -5.4 22.2
21:45 1018 30.06 848 25.04 14.7 58.5 27 -4.2 24.5
21:50 1019 30.09 848 25.04 14.5 58.1 25 -5 22.9
21:55 1019 30.09 848 25.04 14 57.2 25 -5.4 22.2
22:00 1019 30.09 848 25.04 13.7 56.6 27 -4.9 23.2
22:05 1019 30.09 848 25.04 13.3 55.9 28 -4.9 23.2
22:10 1019 30.09 848 25.04 12.9 55.2 28 -5 23
22:15 1018 30.06 848 25.04 12.9 55.3 27 -5.6 21.9
22:20 1018 30.06 848 25.04 12.9 55.2 29 -4.7 23.6
22:25 1018 30.06 848 25.04 12.6 54.6 28 -5.4 22.2
22:30 1018 30.06 848 25.04 12.7 54.9 27 -5.8 21.6
22:35 1018 30.06 848 25.04 12.9 55.2 26 -6 21.2
22:40 1018 30.06 848 25.04 12.8 55.1 28 -5.4 22.3
22:45 1018 30.06 848 25.04 12.5 54.5 27 -5.9 21.5
22:50 1018 30.06 848 25.04 12.4 54.4 27 -5.9 21.4
22:55 1018 30.06 848 25.04 12.5 54.5 26 -6.3 20.7
23:00 1018 30.06 848 25.04 12.8 55 24 -7 19.3
23:05 1018 30.06 848 25.04 13.5 56.2 25 -6.4 20.5
23:10 1018 30.06 848 25.04 13.2 55.8 26 -5.6 21.9
23:15 1018 30.06 848 25.04 13.1 55.6 27 -5.5 22.1
23:20 1018 30.06 848 25.04 13.1 55.6 26 -6.1 21
23:25 1018 30.06 848 25.04 13.2 55.8 25 -6.3 20.6
23:30 1018 30.06 848 25.04 12.9 55.2 26 -6.1 20.9
23:35 1018 30.06 848 25.04 12.8 55 26 -6.1 21.1
23:40 1018 30.06 848 25.04 12.5 54.5 26 -6.3 20.6
23:45 1018 30.06 848 25.04 12.8 55.1 26 -6.2 20.8
23:50 1018 30.06 848 25.04 13 55.4 27 -5.6 21.8
23:55 1018 30.06 848 25.04 13.7 56.6 23 -6.8 19.7
24:00 1018 30.06 848 25.04 14.1 57.3 24 -6.3 20.6